createdAt,value
2022-09-23T00:00:50.428Z,10.80
2022-09-23T00:03:17.386Z,15.73
2022-09-23T00:05:44.510Z,11.23
2022-09-23T00:08:11.626Z,11.70
2022-09-23T00:10:39.508Z,11.65
2022-09-23T00:13:06.482Z,9.63
2022-09-23T00:15:38.404Z,11.32
2022-09-23T00:18:05.468Z,9.80
2022-09-23T00:20:36.647Z,11.80
2022-09-23T00:23:03.575Z,12.60
2022-09-23T00:25:30.453Z,11.07
2022-09-23T00:27:58.950Z,10.63
2022-09-23T00:30:25.903Z,9.25
2022-09-23T00:32:53.136Z,11.60
2022-09-23T00:35:20.296Z,10.70
2022-09-23T00:37:47.180Z,9.73
2022-09-23T00:40:14.293Z,9.18
2022-09-23T00:42:52.040Z,9.80
2022-09-23T00:45:19.415Z,9.90
2022-09-23T00:47:56.728Z,11.80
2022-09-23T00:50:25.854Z,8.70
2022-09-23T00:52:54.311Z,11.95
2022-09-23T00:55:28.692Z,8.82
2022-09-23T00:57:57.148Z,9.95
2022-09-23T01:00:24.114Z,10.18
2022-09-23T01:02:51.654Z,8.27
2022-09-23T01:05:18.971Z,10.00
2022-09-23T01:07:46.188Z,10.15
2022-09-23T01:10:13.886Z,10.18
2022-09-23T01:13:05.726Z,11.65
2022-09-23T01:15:59.750Z,10.90
2022-09-23T01:18:29.816Z,13.25
2022-09-23T01:21:07.122Z,14.43
2022-09-23T01:24:11.120Z,13.23
2022-09-23T01:27:09.116Z,12.15
2022-09-23T01:29:41.333Z,11.48
2022-09-23T01:32:23.290Z,12.15
2022-09-23T01:37:28.530Z,13.48
2022-09-23T01:40:04.524Z,12.13
2022-09-23T01:42:32.792Z,11.05
2022-09-23T01:45:46.619Z,11.32
2022-09-23T01:48:23.828Z,14.32
2022-09-23T01:50:57.481Z,11.25
2022-09-23T01:53:33.051Z,11.73
2022-09-23T01:56:03.523Z,11.27
2022-09-23T01:58:41.965Z,15.23
2022-09-23T02:01:09.247Z,12.13
2022-09-23T02:03:44.963Z,10.98
2022-09-23T02:06:15.562Z,12.73
2022-09-23T02:08:47.788Z,11.48
2022-09-23T02:11:15.569Z,11.50
2022-09-23T02:13:59.983Z,11.63
2022-09-23T02:16:42.323Z,11.20
2022-09-23T02:19:28.005Z,13.75
2022-09-23T02:22:03.883Z,13.18
2022-09-23T02:24:31.645Z,14.38
2022-09-23T02:27:20.584Z,11.90
2022-09-23T02:29:59.521Z,10.85
2022-09-23T02:33:00.805Z,14.02
2022-09-23T02:35:35.506Z,9.45
2022-09-23T02:38:27.353Z,10.98
2022-09-23T02:41:01.623Z,12.82
2022-09-23T02:43:53.957Z,12.27
2022-09-23T02:46:21.230Z,9.98
2022-09-23T02:48:56.883Z,10.57
2022-09-23T02:51:28.891Z,10.48
2022-09-23T02:53:56.488Z,11.02
2022-09-23T02:56:23.356Z,13.93
2022-09-23T02:58:51.946Z,10.93
2022-09-23T03:01:35.085Z,12.95
2022-09-23T03:04:34.175Z,10.05
2022-09-23T03:07:09.025Z,10.35
2022-09-23T03:09:38.802Z,9.15
2022-09-23T03:12:21.602Z,9.85
2022-09-23T03:15:00.539Z,10.73
2022-09-23T03:17:58.996Z,10.30
2022-09-23T03:20:34.228Z,10.40
2022-09-23T03:23:03.431Z,13.25
2022-09-23T03:25:34.556Z,9.68
2022-09-23T03:28:01.857Z,12.30
2022-09-23T03:30:28.926Z,9.80
2022-09-23T03:32:55.816Z,9.82
2022-09-23T03:35:24.244Z,12.00
2022-09-23T03:38:16.067Z,9.65
2022-09-23T03:40:43.764Z,10.02
2022-09-23T03:43:13.415Z,11.80
2022-09-23T03:45:41.377Z,10.93
2022-09-23T03:48:08.365Z,10.65
2022-09-23T03:50:39.243Z,10.32
2022-09-23T03:53:06.977Z,9.43
2022-09-23T03:55:34.849Z,10.60
2022-09-23T03:58:03.247Z,12.15
2022-09-23T04:00:30.093Z,11.18
2022-09-23T04:02:57.307Z,11.45
2022-09-23T04:05:24.187Z,9.90
2022-09-23T04:07:51.179Z,9.15
2022-09-23T04:10:18.223Z,10.40
2022-09-23T04:12:45.185Z,9.88
2022-09-23T04:15:12.362Z,10.13
2022-09-23T04:17:39.284Z,9.77
2022-09-23T04:20:06.600Z,10.40
2022-09-23T04:22:34.369Z,12.77
2022-09-23T04:25:01.296Z,10.30
2022-09-23T04:27:28.167Z,9.50
2022-09-23T04:29:55.037Z,9.30
2022-09-23T04:32:22.064Z,10.00
2022-09-23T04:34:49.140Z,10.77
2022-09-23T04:37:16.140Z,11.05
2022-09-23T04:39:43.399Z,12.05
2022-09-23T04:42:10.409Z,11.15
2022-09-23T04:44:38.942Z,10.95
2022-09-23T04:47:06.048Z,10.32
2022-09-23T04:49:33.716Z,9.90
2022-09-23T04:52:00.963Z,10.48
2022-09-23T04:54:28.187Z,11.18
2022-09-23T04:56:55.752Z,10.43
2022-09-23T04:59:22.714Z,10.85
2022-09-23T05:01:52.016Z,10.40
2022-09-23T05:04:18.968Z,13.18
2022-09-23T05:06:46.495Z,10.70
2022-09-23T05:09:16.447Z,10.52
2022-09-23T05:11:47.273Z,10.45
2022-09-23T05:14:14.536Z,11.05
2022-09-23T05:16:41.541Z,12.85
2022-09-23T05:19:08.921Z,10.45
2022-09-23T05:21:37.172Z,10.95
2022-09-23T05:24:04.292Z,10.27
2022-09-23T05:26:32.019Z,11.70
2022-09-23T05:28:59.510Z,11.07
2022-09-23T05:31:27.959Z,11.35
2022-09-23T05:33:59.670Z,11.63
2022-09-23T05:36:27.557Z,13.07
2022-09-23T05:38:56.625Z,11.45
2022-09-23T05:41:23.844Z,11.55
2022-09-23T05:43:51.851Z,12.98
2022-09-23T05:46:27.933Z,13.40
2022-09-23T05:49:02.225Z,12.18
2022-09-23T05:51:31.178Z,10.75
2022-09-23T05:53:58.830Z,11.75
2022-09-23T05:56:26.874Z,12.20
2022-09-23T05:58:55.419Z,11.60
2022-09-23T06:01:27.736Z,14.27
2022-09-23T06:03:56.015Z,12.70
2022-09-23T06:06:32.811Z,14.82
2022-09-23T06:09:00.290Z,14.38
2022-09-23T06:11:29.891Z,13.57
2022-09-23T06:14:00.993Z,13.02
2022-09-23T06:16:28.725Z,12.48
2022-09-23T06:18:55.909Z,13.10
2022-09-23T06:21:22.992Z,13.07
2022-09-23T06:23:52.733Z,11.45
2022-09-23T06:26:22.634Z,11.10
2022-09-23T06:28:50.266Z,12.57
2022-09-23T06:31:17.484Z,9.93
2022-09-23T06:33:45.054Z,11.35
2022-09-23T06:36:16.354Z,11.23
2022-09-23T06:38:51.460Z,12.45
2022-09-23T06:41:20.704Z,12.57
2022-09-23T06:43:48.082Z,14.40
2022-09-23T06:46:16.251Z,14.07
2022-09-23T06:48:46.182Z,13.77
2022-09-23T06:51:19.368Z,14.63
2022-09-23T06:53:47.619Z,16.10
2022-09-23T06:56:14.589Z,16.05
2022-09-23T06:58:41.541Z,16.38
2022-09-23T07:01:12.343Z,17.02
2022-09-23T07:03:39.413Z,17.50
2022-09-23T07:06:06.891Z,16.38
2022-09-23T07:08:34.088Z,16.20
2022-09-23T07:11:03.516Z,15.32
2022-09-23T07:13:30.707Z,16.70
2022-09-23T07:16:02.089Z,17.42
2022-09-23T07:18:36.621Z,16.42
2022-09-23T07:21:08.090Z,15.43
2022-09-23T07:23:35.130Z,14.57
2022-09-23T07:26:02.171Z,14.90
2022-09-23T07:28:29.239Z,15.80
2022-09-23T07:31:00.361Z,14.30
2022-09-23T07:33:33.077Z,16.58
2022-09-23T07:36:05.160Z,14.95
2022-09-23T07:38:32.049Z,14.40
2022-09-23T07:41:09.337Z,14.10
2022-09-23T07:43:37.186Z,13.68
2022-09-23T07:46:10.299Z,11.35
2022-09-23T07:48:37.631Z,12.65
2022-09-23T07:51:09.462Z,13.05
2022-09-23T07:53:36.975Z,12.43
2022-09-23T07:56:05.777Z,13.68
2022-09-23T07:58:33.172Z,13.85
2022-09-23T08:01:07.680Z,12.07
2022-09-23T08:03:35.245Z,12.38
2022-09-23T08:06:11.196Z,13.88
2022-09-23T08:08:43.548Z,12.48
2022-09-23T08:11:11.853Z,10.55
2022-09-23T08:13:38.730Z,11.75
2022-09-23T08:16:06.795Z,12.13
2022-09-23T08:18:34.160Z,11.35
2022-09-23T08:21:01.571Z,12.50
2022-09-23T08:23:33.593Z,11.27
2022-09-23T08:26:02.101Z,10.85
2022-09-23T08:28:29.117Z,12.45
2022-09-23T08:30:56.092Z,10.85
2022-09-23T08:33:23.887Z,11.10
2022-09-23T08:35:51.500Z,11.65
2022-09-23T08:38:19.028Z,12.25
2022-09-23T08:40:48.520Z,10.65
2022-09-23T08:43:26.840Z,11.07
2022-09-23T08:45:54.404Z,10.90
2022-09-23T08:48:31.243Z,11.60
2022-09-23T08:51:26.237Z,12.02
2022-09-23T08:53:53.292Z,11.30
2022-09-23T08:56:22.425Z,10.43
2022-09-23T08:59:16.795Z,10.90
2022-09-23T09:01:45.222Z,12.00
2022-09-23T09:04:16.531Z,10.77
2022-09-23T09:07:24.531Z,11.38
2022-09-23T09:10:16.783Z,10.30
2022-09-23T09:12:48.224Z,11.38
2022-09-23T09:15:27.378Z,12.45
2022-09-23T09:18:12.411Z,11.00
2022-09-23T09:21:00.651Z,11.30
2022-09-23T09:23:49.861Z,10.77
2022-09-23T09:26:23.447Z,12.52
2022-09-23T09:28:59.072Z,13.93
2022-09-23T09:31:38.093Z,17.55
2022-09-23T09:34:21.132Z,19.10
2022-09-23T09:36:57.822Z,22.05
2022-09-23T09:39:26.324Z,19.50
2022-09-23T09:41:55.499Z,20.42
2022-09-23T09:44:42.902Z,21.70
2022-09-23T09:47:15.488Z,19.15
2022-09-23T09:49:59.900Z,20.27
2022-09-23T09:52:29.743Z,21.83
2022-09-23T09:55:15.167Z,23.33
2022-09-23T09:57:48.065Z,18.55
2022-09-23T10:00:26.486Z,19.85
2022-09-23T10:03:18.683Z,19.20
2022-09-23T10:05:47.549Z,21.48
2022-09-23T10:08:33.546Z,19.15
2022-09-23T10:11:04.860Z,18.83
2022-09-23T10:13:32.046Z,20.20
2022-09-23T10:16:03.116Z,19.17
2022-09-23T10:18:32.082Z,20.75
2022-09-23T10:21:10.832Z,20.25
2022-09-23T10:23:42.705Z,18.63
2022-09-23T10:26:10.314Z,19.90
2022-09-23T10:28:47.525Z,19.02
2022-09-23T10:31:34.528Z,19.98
2022-09-23T10:34:26.371Z,18.67
2022-09-23T10:37:03.110Z,18.42
2022-09-23T10:39:48.334Z,16.88
2022-09-23T10:42:45.295Z,17.30
2022-09-23T10:45:39.854Z,18.25
2022-09-23T10:48:36.179Z,18.67
2022-09-23T10:51:26.085Z,17.30
2022-09-23T10:54:02.726Z,16.42
2022-09-23T10:56:38.714Z,16.23
2022-09-23T10:59:12.249Z,16.75
2022-09-23T11:01:51.272Z,15.68
2022-09-23T11:04:54.759Z,15.88
2022-09-23T11:07:38.971Z,17.35
2022-09-23T11:10:46.515Z,13.80
2022-09-23T11:13:24.926Z,14.55
2022-09-23T11:16:18.658Z,13.82
2022-09-23T11:18:48.455Z,12.20
2022-09-23T11:21:21.129Z,13.50
2022-09-23T11:23:56.936Z,11.02
2022-09-23T11:27:08.506Z,9.63
2022-09-23T11:29:53.657Z,11.18
2022-09-23T11:32:42.225Z,10.52
2022-09-23T11:35:25.046Z,12.85
2022-09-23T11:37:55.946Z,10.82
2022-09-23T11:40:24.533Z,12.32
2022-09-23T11:42:58.232Z,16.25
2022-09-23T11:45:29.202Z,11.70
2022-09-23T11:48:27.770Z,9.75
2022-09-23T11:51:21.545Z,11.40
2022-09-23T11:54:19.745Z,9.65
2022-09-23T11:56:53.096Z,9.80
2022-09-23T11:59:40.669Z,9.38
2022-09-23T12:02:25.745Z,10.13
2022-09-23T12:05:10.673Z,11.45
2022-09-23T12:07:46.670Z,11.48
2022-09-23T12:10:16.814Z,12.77
2022-09-23T12:12:58.605Z,10.18
2022-09-23T12:15:39.508Z,8.50
2022-09-23T12:18:10.643Z,9.23
2022-09-23T12:20:43.660Z,7.78
2022-09-23T12:23:25.707Z,7.45
2022-09-23T12:26:01.938Z,9.27
2022-09-23T12:28:33.699Z,7.93
2022-09-23T12:31:01.217Z,10.07
2022-09-23T12:33:30.499Z,9.20
2022-09-23T12:36:07.585Z,9.32
2022-09-23T12:38:53.582Z,8.05
2022-09-23T12:41:23.998Z,8.70
2022-09-23T12:43:56.897Z,8.52
2022-09-23T12:46:25.737Z,9.57
2022-09-23T12:48:58.951Z,8.75
2022-09-23T12:51:27.286Z,8.18
2022-09-23T12:53:59.697Z,9.70
2022-09-23T12:56:55.966Z,10.00
2022-09-23T12:59:30.621Z,8.80
2022-09-23T13:01:58.151Z,9.18
2022-09-23T13:04:46.788Z,10.27
2022-09-23T13:07:16.574Z,9.73
2022-09-23T13:09:46.805Z,8.93
2022-09-23T13:12:40.957Z,10.48
2022-09-23T13:15:34.020Z,9.43
2022-09-23T13:18:20.285Z,9.27
2022-09-23T13:20:48.513Z,10.60
2022-09-23T13:23:33.866Z,8.57
2022-09-23T13:26:01.962Z,8.25
2022-09-23T13:28:33.111Z,7.70
2022-09-23T13:31:04.792Z,7.55
2022-09-23T13:33:34.596Z,8.38
2022-09-23T13:36:02.754Z,7.82
2022-09-23T13:38:32.072Z,7.10
2022-09-23T13:41:09.882Z,7.63
2022-09-23T13:43:50.987Z,7.30
2022-09-23T13:46:22.803Z,6.75
2022-09-23T13:48:51.988Z,7.32
2022-09-23T13:51:23.277Z,7.65
2022-09-23T13:54:00.951Z,7.50
2022-09-23T13:56:32.255Z,6.45
2022-09-23T13:59:24.787Z,6.40
2022-09-23T14:02:02.188Z,6.22
2022-09-23T14:04:29.200Z,6.15
2022-09-23T14:06:56.065Z,6.85
2022-09-23T14:09:24.936Z,7.78
2022-09-23T14:11:52.223Z,8.02
2022-09-23T14:14:19.522Z,8.23
2022-09-23T14:16:49.081Z,8.65
2022-09-23T14:19:20.475Z,7.07
2022-09-23T14:21:51.701Z,8.07
2022-09-23T14:24:21.488Z,7.43
2022-09-23T14:27:06.857Z,9.25
2022-09-23T14:29:35.222Z,8.50
2022-09-23T14:32:04.592Z,9.05
2022-09-23T14:34:50.844Z,8.65
2022-09-23T14:37:51.737Z,9.75
2022-09-23T14:40:22.803Z,11.70
2022-09-23T14:42:52.195Z,9.55
2022-09-23T14:45:21.462Z,10.05
2022-09-23T14:48:25.734Z,10.10
2022-09-23T14:50:56.390Z,9.13
2022-09-23T14:53:23.316Z,10.32
2022-09-23T14:56:08.555Z,9.50
2022-09-23T14:58:52.632Z,9.00
2022-09-23T15:01:26.534Z,10.00
2022-09-23T15:03:54.511Z,10.27
2022-09-23T15:06:22.383Z,10.52
2022-09-23T15:08:49.332Z,10.05
2022-09-23T15:11:16.334Z,10.95
2022-09-23T15:13:46.276Z,11.40
2022-09-23T15:16:14.407Z,10.25
2022-09-23T15:18:43.188Z,9.18
2022-09-23T15:21:14.650Z,10.38
2022-09-23T15:23:44.594Z,11.23
2022-09-23T15:26:18.242Z,10.18
2022-09-23T15:28:45.850Z,10.38
2022-09-23T15:31:17.575Z,10.00
2022-09-23T15:33:48.266Z,9.57
2022-09-23T15:36:16.925Z,11.60
2022-09-23T15:38:44.258Z,12.15
2022-09-23T15:41:11.263Z,10.90
2022-09-23T15:43:40.011Z,11.70
2022-09-23T15:46:08.843Z,11.07
2022-09-23T15:48:38.689Z,11.40
2022-09-23T15:51:07.084Z,10.52
2022-09-23T15:53:34.339Z,12.52
2022-09-23T15:56:01.639Z,9.98
2022-09-23T15:58:28.895Z,10.57
2022-09-23T16:00:57.249Z,11.48
2022-09-23T16:03:28.891Z,10.77
2022-09-23T16:08:26.072Z,9.38
2022-09-23T16:10:55.553Z,10.00
2022-09-23T16:13:23.953Z,9.25
2022-09-23T16:15:51.033Z,8.60
2022-09-23T16:18:18.357Z,9.90
2022-09-23T16:20:45.974Z,9.43
2022-09-23T16:23:34.782Z,9.40
2022-09-23T16:26:03.017Z,10.20
2022-09-23T16:28:30.022Z,10.38
2022-09-23T16:30:56.988Z,11.98
2022-09-23T16:33:24.236Z,10.45
2022-09-23T16:35:51.850Z,11.07
2022-09-23T16:38:18.883Z,11.23
2022-09-23T16:40:47.328Z,12.20
2022-09-23T16:43:14.649Z,11.10
2022-09-23T16:45:41.699Z,12.15
2022-09-23T16:48:11.429Z,11.73
2022-09-23T16:50:40.099Z,11.18
2022-09-23T16:53:07.076Z,11.95
2022-09-23T16:55:34.029Z,9.65
2022-09-23T16:58:01.149Z,10.82
2022-09-23T17:00:46.984Z,11.10
2022-09-23T17:03:32.657Z,10.55
2022-09-23T17:06:01.540Z,11.50
2022-09-23T17:08:31.571Z,10.15
2022-09-23T17:10:59.049Z,9.57
2022-09-23T17:13:29.740Z,9.18
2022-09-23T17:18:24.889Z,9.48
2022-09-23T17:20:59.465Z,7.90
2022-09-23T17:23:27.004Z,8.45
2022-09-23T17:25:54.229Z,7.72
2022-09-23T17:28:21.848Z,7.90
2022-09-23T17:30:58.136Z,6.40
2022-09-23T17:33:29.263Z,6.90
2022-09-23T17:35:57.005Z,6.85
2022-09-23T17:38:29.437Z,5.35
2022-09-23T17:40:59.161Z,7.22
2022-09-23T17:43:26.567Z,6.82
2022-09-23T17:45:54.610Z,7.32
2022-09-23T17:48:22.638Z,7.45
2022-09-23T17:50:56.196Z,6.03
2022-09-23T17:53:24.074Z,6.10
2022-09-23T17:56:01.958Z,6.45
2022-09-23T17:58:29.775Z,6.40
2022-09-23T18:00:57.035Z,10.45
2022-09-23T18:03:24.815Z,5.10
2022-09-23T18:05:51.942Z,5.40
2022-09-23T18:08:19.076Z,6.18
2022-09-23T18:10:46.095Z,7.00
2022-09-23T18:13:13.163Z,7.05
2022-09-23T18:15:40.158Z,6.40
2022-09-23T18:18:07.187Z,6.47
2022-09-23T18:20:34.102Z,6.18
2022-09-23T18:23:01.008Z,8.70
2022-09-23T18:25:39.126Z,7.38
2022-09-23T18:28:07.124Z,6.38
2022-09-23T18:30:34.066Z,6.90
2022-09-23T18:33:02.258Z,6.32
2022-09-23T18:35:29.183Z,7.15
2022-09-23T18:37:56.412Z,6.47
2022-09-23T18:40:23.453Z,9.52
2022-09-23T18:42:50.569Z,4.97
2022-09-23T18:45:17.820Z,6.28
2022-09-23T18:48:03.416Z,7.18
2022-09-23T18:50:40.323Z,6.13
2022-09-23T18:53:08.361Z,7.05
2022-09-23T18:55:36.180Z,10.02
2022-09-23T18:58:03.380Z,7.70
2022-09-23T19:00:30.615Z,7.65
2022-09-23T19:02:57.794Z,8.27
2022-09-23T19:05:24.824Z,8.45
2022-09-23T19:07:51.967Z,5.95
2022-09-23T19:10:19.249Z,7.35
2022-09-23T19:12:46.718Z,6.43
2022-09-23T19:15:14.179Z,6.90
2022-09-23T19:17:41.245Z,9.43
2022-09-23T19:20:09.531Z,8.63
2022-09-23T19:22:36.529Z,6.60
2022-09-23T19:25:03.842Z,7.97
2022-09-23T19:27:30.873Z,6.95
2022-09-23T19:29:57.887Z,7.07
2022-09-23T19:32:26.839Z,8.70
2022-09-23T19:34:53.810Z,6.00
2022-09-23T19:37:21.097Z,6.47
2022-09-23T19:39:48.256Z,6.97
2022-09-23T19:42:15.264Z,8.18
2022-09-23T19:44:42.419Z,7.78
2022-09-23T19:47:15.392Z,5.57
2022-09-23T19:49:42.612Z,8.07
2022-09-23T19:52:09.541Z,7.18
2022-09-23T19:54:37.226Z,8.40
2022-09-23T19:57:04.330Z,7.57
2022-09-23T19:59:31.409Z,11.75
2022-09-23T20:01:58.351Z,7.13
2022-09-23T20:04:26.290Z,6.57
2022-09-23T20:06:53.231Z,7.93
2022-09-23T20:09:20.694Z,7.75
2022-09-23T20:11:47.761Z,7.88
2022-09-23T20:14:15.218Z,8.80
2022-09-23T20:16:42.198Z,7.45
2022-09-23T20:19:09.866Z,9.00
2022-09-23T20:21:36.747Z,7.80
2022-09-23T20:24:07.632Z,8.43
2022-09-23T20:26:53.303Z,7.10
2022-09-23T20:29:20.188Z,9.80
2022-09-23T20:31:47.541Z,9.45
2022-09-23T20:34:14.645Z,7.40
2022-09-23T20:36:42.307Z,8.98
2022-09-23T20:39:09.793Z,10.23
2022-09-23T20:41:37.966Z,8.25
2022-09-23T20:44:07.558Z,8.93
2022-09-23T20:46:35.107Z,8.35
2022-09-23T20:49:02.771Z,8.75
2022-09-23T20:51:29.808Z,8.98
2022-09-23T20:53:56.702Z,8.38
2022-09-23T20:56:23.679Z,11.55
2022-09-23T20:58:54.087Z,10.18
2022-09-23T21:01:21.220Z,8.27
2022-09-23T21:03:49.340Z,10.43
2022-09-23T21:06:17.030Z,9.30
2022-09-23T21:08:47.132Z,10.80
2022-09-23T21:11:15.659Z,8.35
2022-09-23T21:13:47.179Z,9.18
2022-09-23T21:16:16.140Z,11.73
2022-09-23T21:18:43.672Z,8.05
2022-09-23T21:21:10.937Z,7.35
2022-09-23T21:23:38.821Z,8.60
2022-09-23T21:26:13.023Z,7.18
2022-09-23T21:28:40.599Z,6.90
2022-09-23T21:31:28.616Z,8.07
2022-09-23T21:34:00.248Z,7.32
2022-09-23T21:38:58.239Z,6.97
2022-09-23T21:41:25.340Z,7.95
2022-09-23T21:43:52.421Z,7.53
2022-09-23T21:46:20.801Z,6.22
2022-09-23T21:48:53.743Z,8.43
2022-09-23T21:51:28.471Z,7.05
2022-09-23T21:53:56.833Z,7.70
2022-09-23T21:56:25.293Z,8.00
2022-09-23T21:58:53.643Z,7.05
2022-09-23T22:01:21.769Z,7.10
2022-09-23T22:03:50.883Z,7.40
2022-09-23T22:06:21.533Z,7.82
2022-09-23T22:09:02.387Z,9.00
2022-09-23T22:11:49.295Z,6.50
2022-09-23T22:14:17.194Z,7.40
2022-09-23T22:16:44.256Z,7.97
2022-09-23T22:19:12.355Z,8.93
2022-09-23T22:21:40.074Z,9.00
2022-09-23T22:24:08.420Z,6.40
2022-09-23T22:26:37.530Z,7.25
2022-09-23T22:29:23.809Z,7.22
2022-09-23T22:32:09.576Z,7.32
2022-09-23T22:34:49.425Z,7.32
2022-09-23T22:37:18.244Z,8.63
2022-09-23T22:39:45.297Z,6.80
2022-09-23T22:42:13.163Z,10.52
2022-09-23T22:44:40.241Z,9.20
2022-09-23T22:47:07.352Z,6.82
2022-09-23T22:49:34.269Z,9.00
2022-09-23T22:52:04.065Z,8.73
2022-09-23T22:54:33.912Z,9.60
2022-09-23T22:57:03.386Z,7.85
2022-09-23T22:59:30.329Z,7.80
2022-09-23T23:01:57.694Z,7.45
2022-09-23T23:04:24.613Z,10.60
2022-09-23T23:06:52.163Z,11.02
2022-09-23T23:09:19.365Z,8.20
2022-09-23T23:11:47.180Z,7.75
2022-09-23T23:14:16.765Z,7.88
2022-09-23T23:16:45.263Z,8.48
2022-09-23T23:19:14.150Z,6.82
2022-09-23T23:21:43.459Z,10.63
2022-09-23T23:24:18.702Z,10.77
2022-09-23T23:26:45.721Z,8.60
2022-09-23T23:29:13.794Z,8.63
2022-09-23T23:31:41.016Z,9.32
2022-09-23T23:34:08.486Z,11.63
2022-09-23T23:36:35.400Z,9.35
2022-09-23T23:39:02.284Z,8.70
2022-09-23T23:41:29.206Z,11.70
2022-09-23T23:43:58.387Z,10.13
2022-09-23T23:46:26.575Z,10.38
2022-09-23T23:48:54.241Z,9.55
2022-09-23T23:51:21.438Z,8.35
2022-09-23T23:53:48.417Z,10.77
2022-09-23T23:56:17.600Z,9.48
2022-09-23T23:58:44.936Z,10.32
